Time;durP1;ratioP1;P1;durP2;ratioP2;P2;SDS_P1;SDS_P2;PMS_P1;PMS_P2;Temp;Humidity;BMP_temperature;BMP_pressure;BME280_temperature;BME280_humidity;BME280_pressure;Samples;Min_cycle;Max_cycle;Signal;HPM_P1;HPM_P2
2021/06/09 00:01:34;;;;;;;;;;;;;;;20.27;65.92;100733.81;5133374;27;1936;-45
2021/06/09 00:04:00;;;;;;;;;;;;;;;20.24;66.28;100732.28;5132222;28;1906;-45
2021/06/09 00:06:27;;;;;;;;;;;;;;;20.24;66.72;100751.06;5133795;28;1761;-44
2021/06/09 00:08:53;;;;;;;;;;;;;;;20.28;66.92;100754.31;5133469;28;1692;-45
2021/06/09 00:11:19;;;;;;;;;;;;;;;20.34;67.34;100726.88;5133790;28;1864;-44
2021/06/09 00:13:46;;;;;;;;;;;;;;;20.32;67.01;100738.78;5134633;28;949;-44
2021/06/09 00:16:14;;;;;;;;;;;;;;;20.31;66.10;100737.91;5132794;28;1768;-45
2021/06/09 00:18:41;;;;;;;;;;;;;;;20.24;66.96;100720.69;5132771;28;1806;-45
2021/06/09 00:21:06;;;;;;;;;;;;;;;20.29;66.63;100734.53;5133136;28;1559;-44
2021/06/09 00:23:33;;;;;;;;;;;;;;;20.21;65.39;100727.22;5133141;28;1976;-44
2021/06/09 00:26:01;;;;;;;;;;;;;;;20.22;65.85;100728.06;5132268;28;1575;-44
2021/06/09 00:28:27;;;;;;;;;;;;;;;20.20;65.40;100719.28;5133595;28;1613;-44
2021/06/09 00:30:55;;;;;;;;;;;;;;;20.22;65.96;100738.78;5132868;28;1550;-44
2021/06/09 00:33:21;;;;;;;;;;;;;;;20.19;66.32;100723.81;5123745;28;1800;-45
2021/06/09 00:35:47;;;;;;;;;;;;;;;20.20;65.51;100725.50;5131657;28;1878;-45
2021/06/09 00:38:13;;;;;;;;;;;;;;;20.24;66.34;100734.97;5129564;28;1680;-45
2021/06/09 00:40:39;;;;;;;;;;;;;;;20.26;66.32;100735.66;5133052;28;1550;-45
2021/06/09 00:43:07;;;;;;;;;;;;;;;20.26;66.42;100746.41;5132658;28;1901;-44
2021/06/09 00:45:33;;;;;;;;;;;;;;;20.28;66.86;100751.63;5133176;28;1747;-44
2021/06/09 00:48:01;;;;;;;;;;;;;;;20.27;67.31;100734.69;5132589;28;1907;-45
2021/06/09 00:50:27;;;;;;;;;;;;;;;20.24;65.26;100742.19;5131205;28;1544;-44
2021/06/09 00:52:53;;;;;;;;;;;;;;;20.21;65.86;100751.38;5132642;28;1284;-45
2021/06/09 00:55:19;;;;;;;;;;;;;;;20.20;66.43;100738.94;5133169;28;1418;-45
2021/06/09 00:57:46;;;;;;;;;;;;;;;20.23;65.69;100752.06;5133316;28;1595;-44
2021/06/09 01:00:12;;;;;;;;;;;;;;;20.20;66.29;100736.25;5129237;28;1830;-44
2021/06/09 01:02:39;;;;;;;;;;;;;;;20.25;66.68;100741.16;5128636;28;1901;-44
2021/06/09 01:05:07;;;;;;;;;;;;;;;20.21;65.77;100735.28;5131721;28;1773;-44
2021/06/09 01:07:36;;;;;;;;;;;;;;;20.21;65.43;100735.28;5132942;28;1622;-44
2021/06/09 01:10:02;;;;;;;;;;;;;;;20.21;65.82;100745.13;5134191;27;1633;-45
2021/06/09 01:12:28;;;;;;;;;;;;;;;20.23;66.15;100741.34;5136793;27;1201;-44
2021/06/09 01:14:54;;;;;;;;;;;;;;;20.21;64.59;100732.59;5136565;27;1951;-44
2021/06/09 01:17:20;;;;;;;;;;;;;;;20.16;65.25;100726.78;5136176;27;1723;-44
2021/06/09 01:19:46;;;;;;;;;;;;;;;20.21;66.32;100735.28;5136596;27;1663;-44
2021/06/09 01:22:14;;;;;;;;;;;;;;;20.23;66.42;100725.22;5136438;27;1771;-44
2021/06/09 01:24:40;;;;;;;;;;;;;;;20.20;64.34;100730.03;5136519;27;1901;-45
2021/06/09 01:27:07;;;;;;;;;;;;;;;20.23;64.10;100743.16;5137619;27;1010;-44
2021/06/09 01:29:33;;;;;;;;;;;;;;;20.18;64.63;100732.84;5136039;27;1578;-44
2021/06/09 01:31:58;;;;;;;;;;;;;;;20.19;64.89;100729.19;5135975;27;1839;-45
2021/06/09 01:34:24;;;;;;;;;;;;;;;20.18;65.03;100743.59;5132666;27;1888;-44
2021/06/09 01:36:50;;;;;;;;;;;;;;;20.16;64.46;100744.75;5136159;27;1803;-44
2021/06/09 01:39:19;;;;;;;;;;;;;;;20.16;65.41;100740.22;5136268;27;1592;-44
2021/06/09 01:41:46;;;;;;;;;;;;;;;20.18;64.67;100742.75;5135558;27;2018;-44
2021/06/09 01:44:13;;;;;;;;;;;;;;;20.16;64.68;100724.09;5137036;27;1971;-44
2021/06/09 01:46:39;;;;;;;;;;;;;;;20.15;64.56;100732.28;5136346;27;1854;-44
2021/06/09 01:49:06;;;;;;;;;;;;;;;20.17;64.19;100741.88;5134125;27;1859;-44
2021/06/09 01:51:32;;;;;;;;;;;;;;;20.17;64.47;100758.00;5133144;27;1954;-44
2021/06/09 01:53:58;;;;;;;;;;;;;;;20.15;65.24;100743.88;5135236;27;1757;-44
2021/06/09 01:56:25;;;;;;;;;;;;;;;20.16;64.78;100755.47;5135398;27;1430;-44
2021/06/09 01:58:51;;;;;;;;;;;;;;;20.08;64.18;100758.88;5135543;27;1576;-44
2021/06/09 02:01:18;;;;;;;;;;;;;;;20.04;63.89;100742.19;5126611;22;3530;-67
2021/06/09 02:03:45;;;;;;;;;;;;;;;20.08;64.15;100768.78;5066320;28;1902;-60
2021/06/09 02:06:11;;;;;;;;;;;;;;;20.09;64.50;100748.97;5063986;28;1555;-60
2021/06/09 02:08:37;;;;;;;;;;;;;;;20.10;64.03;100778.38;5064967;28;1574;-67
2021/06/09 02:11:03;;;;;;;;;;;;;;;20.00;63.73;100767.63;5068190;28;1571;-67
2021/06/09 02:13:31;;;;;;;;;;;;;;;20.02;64.82;100764.81;5074230;28;1032;-60
2021/06/09 02:15:57;;;;;;;;;;;;;;;20.04;63.73;100750.25;5063951;28;1587;-60
2021/06/09 02:18:24;;;;;;;;;;;;;;;20.04;63.94;100769.03;5066022;28;1405;-67
2021/06/09 02:20:50;;;;;;;;;;;;;;;20.02;64.04;100770.19;5067341;28;1599;-67
2021/06/09 02:23:18;;;;;;;;;;;;;;;20.04;64.54;100774.41;5065738;28;1909;-67
2021/06/09 02:25:45;;;;;;;;;;;;;;;20.07;64.35;100762.53;5066064;28;1237;-67
2021/06/09 02:28:11;;;;;;;;;;;;;;;20.07;64.53;100773.28;5065938;28;1376;-60
2021/06/09 02:30:40;;;;;;;;;;;;;;;20.04;64.00;100750.25;5064176;28;1563;-67
2021/06/09 02:33:06;;;;;;;;;;;;;;;20.05;65.23;100765.38;5072041;28;1540;-67
2021/06/09 02:35:35;;;;;;;;;;;;;;;20.00;64.66;100759.59;5065276;28;1594;-66
2021/06/09 02:38:01;;;;;;;;;;;;;;;20.02;65.16;100760.28;5072888;28;1575;-67
2021/06/09 02:40:28;;;;;;;;;;;;;;;20.03;64.96;100772.72;5064716;28;1020;-67
2021/06/09 02:42:54;;;;;;;;;;;;;;;20.08;64.59;100753.50;5063526;28;1906;-67
2021/06/09 02:45:20;;;;;;;;;;;;;;;20.12;65.08;100762.13;5072345;28;1622;-60
2021/06/09 02:47:49;;;;;;;;;;;;;;;20.14;64.37;100765.50;5069442;28;1896;-67
2021/06/09 02:50:16;;;;;;;;;;;;;;;20.14;65.78;100779.78;5065854;28;1595;-67
2021/06/09 02:52:45;;;;;;;;;;;;;;;20.13;65.67;100761.97;5064555;28;1587;-67
2021/06/09 02:55:15;;;;;;;;;;;;;;;20.13;63.33;100761.97;5065209;28;1454;-60
2021/06/09 02:57:45;;;;;;;;;;;;;;;20.07;63.09;100767.91;5068605;28;1524;-67
2021/06/09 03:00:12;;;;;;;;;;;;;;;20.04;64.31;100768.22;5067168;28;1425;-60
2021/06/09 03:02:46;;;;;;;;;;;;;;;19.99;64.29;100760.56;5067212;28;1902;-60
2021/06/09 03:05:19;;;;;;;;;;;;;;;20.09;64.62;100759.72;5065749;28;1664;-60
2021/06/09 03:07:55;;;;;;;;;;;;;;;20.13;64.48;100767.31;5065337;28;1587;-60
2021/06/09 03:10:26;;;;;;;;;;;;;;;20.11;64.92;100750.53;5065258;28;1496;-60
2021/06/09 03:12:54;;;;;;;;;;;;;;;20.09;64.90;100749.81;5067859;28;995;-60
2021/06/09 03:15:27;;;;;;;;;;;;;;;20.09;63.57;100746.28;5069561;28;1594;-67
2021/06/09 03:17:55;;;;;;;;;;;;;;;20.09;63.70;100744.44;5069188;28;1312;-60
2021/06/09 03:20:27;;;;;;;;;;;;;;;20.07;63.67;100770.59;5070903;28;1630;-67
2021/06/09 03:22:57;;;;;;;;;;;;;;;19.99;63.01;100743.63;5065090;28;1910;-60
2021/06/09 03:25:27;;;;;;;;;;;;;;;20.05;63.17;100749.28;5068353;28;1660;-60
2021/06/09 03:27:55;;;;;;;;;;;;;;;20.21;65.16;100772.84;5067335;28;1516;-60
2021/06/09 03:30:24;;;;;;;;;;;;;;;20.19;63.64;100756.03;5066372;28;1611;-67
2021/06/09 03:32:51;;;;;;;;;;;;;;;20.18;65.18;100751.66;5064517;28;1432;-62
2021/06/09 03:35:19;;;;;;;;;;;;;;;20.17;64.01;100758.00;5063776;28;1661;-60
2021/06/09 03:37:48;;;;;;;;;;;;;;;20.19;64.70;100749.81;5068854;28;1569;-60
2021/06/09 03:40:16;;;;;;;;;;;;;;;20.20;63.42;100744.28;5063842;28;1502;-67
2021/06/09 03:42:45;;;;;;;;;;;;;;;20.17;64.06;100747.25;5065194;28;1978;-60
2021/06/09 03:45:12;;;;;;;;;;;;;;;20.20;63.97;100759.56;5071477;28;1391;-67
2021/06/09 03:47:39;;;;;;;;;;;;;;;20.16;63.74;100744.75;5062517;28;1618;-67
2021/06/09 03:50:06;;;;;;;;;;;;;;;20.20;64.62;100748.81;5065207;28;1584;-60
2021/06/09 03:52:33;;;;;;;;;;;;;;;20.18;64.39;100740.06;5063893;28;1384;-60
2021/06/09 03:55:01;;;;;;;;;;;;;;;20.20;63.81;100740.78;5063028;28;1449;-67
2021/06/09 03:57:31;;;;;;;;;;;;;;;20.19;63.80;100745.31;5063109;28;1587;-67
2021/06/09 03:59:58;;;;;;;;;;;;;;;20.19;64.92;100744.44;5059728;28;1694;-66
2021/06/09 04:02:25;;;;;;;;;;;;;;;20.23;63.82;100751.22;5065374;28;1490;-60
2021/06/09 04:04:53;;;;;;;;;;;;;;;20.25;64.56;100743.84;5063280;28;1901;-60
2021/06/09 04:07:20;;;;;;;;;;;;;;;20.27;64.37;100749.94;5062371;28;1568;-60
2021/06/09 04:09:46;;;;;;;;;;;;;;;20.26;64.96;100746.41;5062043;28;1563;-60
2021/06/09 04:12:14;;;;;;;;;;;;;;;20.24;65.22;100734.97;5063484;28;1524;-60
2021/06/09 04:14:41;;;;;;;;;;;;;;;20.27;64.97;100737.38;5071076;28;1604;-66
2021/06/09 04:17:08;;;;;;;;;;;;;;;20.30;64.79;100746.13;5061839;28;1598;-60
2021/06/09 04:19:35;;;;;;;;;;;;;;;20.30;64.97;100741.59;5063123;28;1520;-60
2021/06/09 04:22:02;;;;;;;;;;;;;;;20.36;64.84;100745.53;5063300;28;1618;-60
2021/06/09 04:24:28;;;;;;;;;;;;;;;20.35;64.97;100743.84;5071819;28;1979;-60
2021/06/09 04:26:54;;;;;;;;;;;;;;;20.30;65.16;100752.34;5061939;28;1761;-60
2021/06/09 04:29:22;;;;;;;;;;;;;;;20.39;65.49;100742.56;5061973;28;1608;-60
2021/06/09 04:31:49;;;;;;;;;;;;;;;20.41;64.79;100732.50;5067990;28;1781;-60
2021/06/09 04:34:15;;;;;;;;;;;;;;;20.44;64.89;100748.34;5065126;28;1587;-60
2021/06/09 04:36:41;;;;;;;;;;;;;;;20.45;64.96;100748.22;5063764;28;1454;-67
2021/06/09 04:39:07;;;;;;;;;;;;;;;20.44;65.25;100742.97;5063712;28;1416;-67
2021/06/09 04:41:33;;;;;;;;;;;;;;;20.43;64.97;100749.31;5063613;28;1619;-67
2021/06/09 04:43:59;;;;;;;;;;;;;;;20.47;65.22;100737.31;5062252;28;1902;-67
2021/06/09 04:46:27;;;;;;;;;;;;;;;20.54;64.16;100754.53;5070332;28;1503;-66
2021/06/09 04:49:00;;;;;;;;;;;;;;;20.56;64.22;100746.34;5067448;28;1257;-62
2021/06/09 04:51:30;;;;;;;;;;;;;;;20.57;64.47;100748.88;5067999;28;1624;-60
2021/06/09 04:53:58;;;;;;;;;;;;;;;20.59;64.46;100752.31;5067652;28;1551;-59
2021/06/09 04:56:25;;;;;;;;;;;;;;;20.64;64.49;100746.47;5067575;28;1423;-66
2021/06/09 04:58:51;;;;;;;;;;;;;;;20.63;64.44;100737.59;5071070;28;1495;-60
2021/06/09 05:01:17;;;;;;;;;;;;;;;20.64;64.82;100744.63;5069280;28;1616;-60
2021/06/09 05:03:44;;;;;;;;;;;;;;;20.63;64.65;100744.78;5066135;28;1905;-66
2021/06/09 05:06:10;;;;;;;;;;;;;;;20.59;64.69;100751.44;5070504;28;1694;-67
2021/06/09 05:08:37;;;;;;;;;;;;;;;20.56;64.85;100736.44;5062546;28;1503;-60
2021/06/09 05:11:03;;;;;;;;;;;;;;;20.61;65.49;100739.56;5067192;28;1487;-60
2021/06/09 05:13:31;;;;;;;;;;;;;;;20.67;64.62;100754.22;5075023;28;1113;-60
2021/06/09 05:15:59;;;;;;;;;;;;;;;20.70;64.95;100753.94;5072776;28;1500;-60
2021/06/09 05:18:28;;;;;;;;;;;;;;;20.62;65.48;100752.00;5063287;28;1711;-60
2021/06/09 05:20:56;;;;;;;;;;;;;;;20.65;65.92;100732.03;5067035;28;1702;-60
2021/06/09 05:23:25;;;;;;;;;;;;;;;20.68;65.79;100747.03;5067127;28;1982;-67
2021/06/09 05:25:52;;;;;;;;;;;;;;;20.74;65.70;100754.50;5066967;28;1515;-60
2021/06/09 05:28:20;;;;;;;;;;;;;;;20.74;65.26;100751.81;5067275;28;1437;-67
2021/06/09 05:30:46;;;;;;;;;;;;;;;20.76;65.84;100747.16;5066065;28;1564;-67
2021/06/09 05:33:13;;;;;;;;;;;;;;;20.78;66.17;100739.78;5064353;28;1499;-67
2021/06/09 05:35:39;;;;;;;;;;;;;;;20.84;66.17;100758.84;5070378;28;1528;-68
2021/06/09 05:38:06;;;;;;;;;;;;;;;20.85;66.71;100754.34;5066252;28;1368;-61
2021/06/09 05:40:33;;;;;;;;;;;;;;;20.83;66.81;100737.47;5065940;28;1504;-65
2021/06/09 05:42:59;;;;;;;;;;;;;;;20.84;66.61;100761.53;5065369;28;1979;-66
2021/06/09 05:45:25;;;;;;;;;;;;;;;20.79;67.27;100753.09;5070548;28;1595;-65
2021/06/09 05:47:52;;;;;;;;;;;;;;;20.94;67.78;100749.91;5066906;28;1611;-60
2021/06/09 05:50:19;;;;;;;;;;;;;;;20.90;68.60;100738.59;5067916;28;1564;-59
2021/06/09 05:52:45;;;;;;;;;;;;;;;20.89;68.76;100736.03;5065240;28;1704;-66
2021/06/09 05:55:17;;;;;;;;;;;;;;;20.91;68.22;100740.31;5068219;28;1401;-60
2021/06/09 05:57:44;;;;;;;;;;;;;;;20.90;69.10;100741.28;5065641;28;1154;-60
2021/06/09 06:00:11;;;;;;;;;;;;;;;20.88;69.22;100739.75;5071846;28;1611;-60
2021/06/09 06:02:38;;;;;;;;;;;;;;;20.88;68.99;100754.03;5065811;28;1572;-66
2021/06/09 06:05:05;;;;;;;;;;;;;;;20.84;68.98;100758.84;5067066;28;1902;-60
2021/06/09 06:07:32;;;;;;;;;;;;;;;20.88;68.79;100762.09;5065417;28;1583;-66
2021/06/09 06:09:59;;;;;;;;;;;;;;;20.85;68.62;100759.72;5064191;28;1511;-60
2021/06/09 06:12:27;;;;;;;;;;;;;;;20.82;69.07;100757.31;5074179;28;1516;-67
2021/06/09 06:14:53;;;;;;;;;;;;;;;20.88;68.09;100747.81;5072669;28;1570;-67
2021/06/09 06:17:19;;;;;;;;;;;;;;;20.87;69.49;100755.03;5063752;28;1572;-59
2021/06/09 06:19:49;;;;;;;;;;;;;;;20.90;68.71;100749.34;5072594;28;1493;-60
2021/06/09 06:22:15;;;;;;;;;;;;;;;20.94;68.63;100744.53;5064943;28;1571;-60
2021/06/09 06:24:42;;;;;;;;;;;;;;;20.94;69.32;100749.91;5073399;28;1910;-66
2021/06/09 06:27:09;;;;;;;;;;;;;;;20.91;68.33;100753.75;5067869;28;1057;-66
2021/06/09 06:29:37;;;;;;;;;;;;;;;20.89;69.61;100755.72;5069117;28;1618;-66
2021/06/09 06:32:05;;;;;;;;;;;;;;;20.92;68.63;100758.09;5070663;28;1587;-67
2021/06/09 06:34:31;;;;;;;;;;;;;;;20.96;69.58;100754.13;5068916;28;1668;-67
2021/06/09 06:36:58;;;;;;;;;;;;;;;20.92;69.75;100763.47;5070713;28;1837;-60
2021/06/09 06:39:24;;;;;;;;;;;;;;;20.91;69.31;100766.31;5070335;28;1623;-60
2021/06/09 06:41:51;;;;;;;;;;;;;;;20.88;69.82;100770.16;5065723;28;1448;-60
2021/06/09 06:44:17;;;;;;;;;;;;;;;20.93;69.64;100743.69;5072657;28;1923;-66
2021/06/09 06:46:47;;;;;;;;;;;;;;;20.98;68.42;100749.44;5073166;28;1611;-66
2021/06/09 06:49:15;;;;;;;;;;;;;;;21.01;69.37;100761.75;5061855;28;1299;-60
2021/06/09 06:51:41;;;;;;;;;;;;;;;21.02;68.99;100748.16;5071790;28;1492;-67
2021/06/09 06:54:07;;;;;;;;;;;;;;;21.02;69.38;100752.69;5066151;28;1386;-60
2021/06/09 06:56:34;;;;;;;;;;;;;;;21.02;69.40;100750.84;5069024;28;1399;-60
2021/06/09 06:59:00;;;;;;;;;;;;;;;21.00;69.19;100752.00;5073054;28;1598;-67
2021/06/09 07:01:29;;;;;;;;;;;;;;;20.98;69.32;100743.22;5064542;28;1524;-67
2021/06/09 07:03:57;;;;;;;;;;;;;;;21.01;68.98;100746.47;5070768;28;1988;-60
2021/06/09 07:06:23;;;;;;;;;;;;;;;21.04;68.37;100756.91;5073913;28;1468;-67
2021/06/09 07:08:49;;;;;;;;;;;;;;;21.03;69.28;100755.22;5062537;28;1655;-61
2021/06/09 07:11:16;;;;;;;;;;;;;;;21.05;68.54;100755.94;5068589;28;1527;-67
2021/06/09 07:13:44;;;;;;;;;;;;;;;21.04;68.57;100751.53;5069227;28;1349;-61
2021/06/09 07:16:10;;;;;;;;;;;;;;;21.03;68.59;100757.91;5062838;28;1550;-60
2021/06/09 07:18:42;;;;;;;;;;;;;;;21.04;69.28;100746.16;5063032;28;1511;-66
2021/06/09 07:21:09;;;;;;;;;;;;;;;21.06;69.47;100757.59;5060230;28;1719;-67
2021/06/09 07:23:35;;;;;;;;;;;;;;;21.05;68.89;100755.09;5065605;28;1913;-67
2021/06/09 07:26:02;;;;;;;;;;;;;;;21.03;68.67;100757.91;5068477;28;1336;-67
2021/06/09 07:28:28;;;;;;;;;;;;;;;21.03;69.58;100744.47;5065777;28;1373;-60
2021/06/09 07:30:55;;;;;;;;;;;;;;;21.03;69.66;100766.00;5062640;28;1527;-59
2021/06/09 07:33:22;;;;;;;;;;;;;;;21.02;69.38;100758.06;5067663;28;1866;-60
2021/06/09 07:35:49;;;;;;;;;;;;;;;21.03;69.72;100766.00;5069042;28;1532;-61
2021/06/09 07:38:18;;;;;;;;;;;;;;;21.04;68.89;100764.97;5063920;28;1563;-63
2021/06/09 07:40:46;;;;;;;;;;;;;;;21.05;69.56;100753.25;5064301;28;1516;-73
2021/06/09 07:43:15;;;;;;;;;;;;;;;21.09;70.62;100752.94;5071079;28;1983;-61
2021/06/09 07:45:42;;;;;;;;;;;;;;;21.08;70.05;100751.25;5068793;28;1739;-62
2021/06/09 07:48:08;;;;;;;;;;;;;;;21.12;68.85;100749.94;5064579;28;1575;-66
2021/06/09 07:50:35;;;;;;;;;;;;;;;21.10;68.95;100754.63;5063645;28;1567;-67
2021/06/09 07:53:06;;;;;;;;;;;;;;;21.10;69.69;100768.91;5062607;28;1563;-67
2021/06/09 07:55:34;;;;;;;;;;;;;;;21.13;69.16;100751.63;5062542;28;1623;-62
2021/06/09 07:58:01;;;;;;;;;;;;;;;21.14;69.74;100756.88;5072937;28;1643;-72
2021/06/09 08:00:27;;;;;;;;;;;;;;;21.15;69.33;100757.69;5064920;28;1538;-68
2021/06/09 08:02:54;;;;;;;;;;;;;;;21.17;70.58;100785.28;5066563;28;1624;-67
2021/06/09 08:05:21;;;;;;;;;;;;;;;21.15;70.41;100763.06;5064069;28;1902;-68
2021/06/09 08:07:47;;;;;;;;;;;;;;;21.21;70.61;100775.94;5069069;28;981;-62
2021/06/09 08:10:13;;;;;;;;;;;;;;;21.20;69.88;100752.72;5062602;28;1769;-62
2021/06/09 08:12:41;;;;;;;;;;;;;;;21.28;69.14;100760.06;5069408;28;1623;-62
2021/06/09 08:15:08;;;;;;;;;;;;;;;21.26;69.81;100765.56;5070594;28;1524;-67
2021/06/09 08:17:35;;;;;;;;;;;;;;;21.19;70.35;100754.59;5066431;28;1702;-68
2021/06/09 08:20:02;;;;;;;;;;;;;;;21.15;70.00;100758.56;5067209;28;1568;-61
2021/06/09 08:22:28;;;;;;;;;;;;;;;21.16;70.21;100748.66;5070287;28;1579;-61
2021/06/09 08:24:54;;;;;;;;;;;;;;;21.20;70.36;100760.81;5067456;28;1906;-60
2021/06/09 08:27:20;;;;;;;;;;;;;;;21.19;69.40;100754.59;5067944;28;1587;-60
2021/06/09 08:29:48;;;;;;;;;;;;;;;21.22;69.19;100748.03;5075036;28;1530;-62
2021/06/09 08:32:14;;;;;;;;;;;;;;;21.22;69.46;100748.03;5076323;28;1644;-61
2021/06/09 08:34:40;;;;;;;;;;;;;;;21.24;69.45;100748.75;5067256;28;1579;-67
2021/06/09 08:37:06;;;;;;;;;;;;;;;21.28;70.62;100757.38;5067127;28;954;-61
2021/06/09 08:39:32;;;;;;;;;;;;;;;21.28;70.47;100763.59;5066005;28;1479;-68
2021/06/09 08:42:01;;;;;;;;;;;;;;;21.32;70.19;100759.59;5068018;28;1675;-66
2021/06/09 08:44:28;;;;;;;;;;;;;;;21.44;70.10;100761.09;5060176;28;1981;-71
2021/06/09 08:46:57;;;;;;;;;;;;;;;21.42;69.33;100760.38;5066922;28;1063;-72
2021/06/09 08:49:24;;;;;;;;;;;;;;;21.38;70.29;100768.91;5070890;28;1942;-60
2021/06/09 08:51:52;;;;;;;;;;;;;;;21.36;70.00;100738.63;5064076;28;1703;-60
2021/06/09 08:54:19;;;;;;;;;;;;;;;21.36;69.75;100738.63;5073445;28;1714;-60
2021/06/09 08:56:46;;;;;;;;;;;;;;;21.32;69.60;100735.38;5075519;28;1344;-60
2021/06/09 08:59:13;;;;;;;;;;;;;;;21.29;69.79;100746.47;5075760;28;1599;-60
2021/06/09 09:01:39;;;;;;;;;;;;;;;21.27;69.74;100735.00;5070496;28;1428;-60
2021/06/09 09:04:07;;;;;;;;;;;;;;;21.28;69.37;100746.59;5066245;28;1906;-61
2021/06/09 09:06:33;;;;;;;;;;;;;;;21.38;70.26;100744.69;5072741;28;1538;-71
2021/06/09 09:08:59;;;;;;;;;;;;;;;21.42;69.88;100744.22;5065779;28;1769;-71
2021/06/09 09:11:25;;;;;;;;;;;;;;;21.41;69.53;100742.56;5065838;28;1682;-71
2021/06/09 09:13:51;;;;;;;;;;;;;;;21.40;70.28;100740.84;5077556;28;1071;-71
2021/06/09 09:16:17;;;;;;;;;;;;;;;21.34;69.60;100746.00;5065443;28;1485;-60
2021/06/09 09:18:44;;;;;;;;;;;;;;;21.35;69.64;100751.22;5073704;28;1765;-60
2021/06/09 09:21:13;;;;;;;;;;;;;;;21.32;70.01;100759.59;5071058;28;1682;-60
2021/06/09 09:23:46;;;;;;;;;;;;;;;21.28;70.47;100758.19;5067731;28;1983;-60
2021/06/09 09:26:23;;;;;;;;;;;;;;;21.28;70.50;100762.75;5067375;28;1607;-61
2021/06/09 09:28:49;;;;;;;;;;;;;;;21.26;70.41;100765.56;5067021;28;1214;-70
2021/06/09 09:31:16;;;;;;;;;;;;;;;21.24;69.76;100746.88;5067395;28;1495;-60
2021/06/09 09:33:43;;;;;;;;;;;;;;;21.23;70.10;100755.13;5072523;28;1540;-71
2021/06/09 09:36:26;;;;;;;;;;;;;;;21.23;70.72;100755.13;5065520;28;1192;-71
2021/06/09 09:38:52;;;;;;;;;;;;;;;21.23;70.86;100755.13;5066586;28;1602;-60
2021/06/09 09:41:20;;;;;;;;;;;;;;;21.22;70.19;100754.25;5064891;28;1547;-69
2021/06/09 09:43:50;;;;;;;;;;;;;;;21.29;70.79;100753.66;5068037;28;1977;-60
2021/06/09 09:46:17;;;;;;;;;;;;;;;21.25;69.97;100739.69;5072351;28;1395;-64
2021/06/09 09:48:58;;;;;;;;;;;;;;;21.22;69.98;100731.91;5070833;28;1517;-60
2021/06/09 09:51:26;;;;;;;;;;;;;;;21.24;70.32;100746.88;5066185;28;1661;-65
2021/06/09 09:53:54;;;;;;;;;;;;;;;21.23;71.01;100752.44;5066309;28;1435;-64
2021/06/09 09:56:22;;;;;;;;;;;;;;;21.21;70.85;100741.00;5070106;28;1687;-60
2021/06/09 09:58:52;;;;;;;;;;;;;;;21.19;71.31;100735.75;5069572;28;1644;-67
2021/06/09 10:01:18;;;;;;;;;;;;;;;21.20;70.52;100737.44;5067381;28;1548;-60
2021/06/09 10:03:46;;;;;;;;;;;;;;;21.20;70.61;100731.22;5070175;28;1983;-63
2021/06/09 10:06:15;;;;;;;;;;;;;;;21.21;71.90;100736.44;5064041;28;1451;-63
2021/06/09 10:08:43;;;;;;;;;;;;;;;21.21;70.58;100732.94;5064402;28;1510;-60
2021/06/09 10:11:10;;;;;;;;;;;;;;;21.18;71.68;100735.91;5063130;28;1682;-62
2021/06/09 10:13:36;;;;;;;;;;;;;;;21.20;71.63;100713.22;5066522;28;1541;-63
2021/06/09 10:16:02;;;;;;;;;;;;;;;21.24;71.12;100713.78;5070762;28;1310;-65
2021/06/09 10:18:28;;;;;;;;;;;;;;;21.22;71.40;100722.00;5065884;28;1309;-65
2021/06/09 10:20:56;;;;;;;;;;;;;;;21.18;72.44;100725.16;5063593;28;1369;-66
2021/06/09 10:23:31;;;;;;;;;;;;;;;21.16;71.55;100717.22;5061734;28;1268;-68
2021/06/09 10:26:08;;;;;;;;;;;;;;;21.19;71.40;100714.25;5063840;28;1314;-64
2021/06/09 10:28:53;;;;;;;;;;;;;;;21.19;70.75;100706.19;5062187;28;1388;-60
2021/06/09 10:31:20;;;;;;;;;;;;;;;21.22;70.67;100696.94;5067482;28;1326;-63
2021/06/09 10:33:46;;;;;;;;;;;;;;;21.26;71.27;100706.41;5066330;28;1436;-62
2021/06/09 10:36:13;;;;;;;;;;;;;;;21.23;71.40;100679.84;5062939;28;1452;-60
2021/06/09 10:38:40;;;;;;;;;;;;;;;21.26;71.73;100690.28;5061884;28;1440;-60
2021/06/09 10:41:06;;;;;;;;;;;;;;;21.22;71.46;100689.72;5064818;28;1420;-63
2021/06/09 10:43:34;;;;;;;;;;;;;;;21.24;71.37;100684.19;5060268;28;1906;-63
2021/06/09 10:46:02;;;;;;;;;;;;;;;21.23;71.68;100685.22;5069359;28;1554;-62
2021/06/09 10:48:28;;;;;;;;;;;;;;;21.23;71.37;100672.59;5067147;28;1545;-62
2021/06/09 10:50:54;;;;;;;;;;;;;;;21.22;72.01;100689.72;5068599;28;1365;-62
2021/06/09 10:53:21;;;;;;;;;;;;;;;21.24;72.04;100671.59;5073196;28;1605;-63
2021/06/09 10:55:47;;;;;;;;;;;;;;;21.25;71.03;100686.75;5073628;28;1356;-63
2021/06/09 10:58:14;;;;;;;;;;;;;;;21.21;71.44;100663.00;5074823;28;1749;-62
2021/06/09 11:00:42;;;;;;;;;;;;;;;21.20;72.42;100685.50;5070724;28;1340;-60
2021/06/09 11:03:08;;;;;;;;;;;;;;;21.17;71.86;100675.91;5069621;28;1648;-62
2021/06/09 11:05:35;;;;;;;;;;;;;;;21.16;71.65;100668.81;5066280;28;1909;-60
2021/06/09 11:08:02;;;;;;;;;;;;;;;21.20;71.07;100661.28;5069690;28;1577;-62
2021/06/09 11:10:42;;;;;;;;;;;;;;;21.22;70.96;100664.69;5070044;28;1418;-63
2021/06/09 11:13:09;;;;;;;;;;;;;;;21.21;71.67;100647.72;5072437;28;1605;-63
2021/06/09 11:15:35;;;;;;;;;;;;;;;21.20;70.88;100647.84;5063989;28;1486;-60
2021/06/09 11:18:12;;;;;;;;;;;;;;;21.19;71.49;100647.00;5067660;28;1356;-60
2021/06/09 11:20:39;;;;;;;;;;;;;;;21.24;71.87;100662.69;5067321;28;1527;-60
2021/06/09 11:23:05;;;;;;;;;;;;;;;21.20;72.08;100653.22;5068723;28;1706;-63
2021/06/09 11:25:34;;;;;;;;;;;;;;;21.21;71.53;100645.03;5072921;28;1905;-60
2021/06/09 11:28:02;;;;;;;;;;;;;;;21.21;71.01;100644.19;5066350;28;1449;-62
2021/06/09 11:30:45;;;;;;;;;;;;;;;21.24;71.80;100643.84;5071987;28;1753;-60
2021/06/09 11:33:29;;;;;;;;;;;;;;;21.21;71.98;100639.63;5066509;28;1458;-59
2021/06/09 11:35:57;;;;;;;;;;;;;;;21.20;71.57;100626.34;5060254;28;1258;-63
2021/06/09 11:38:27;;;;;;;;;;;;;;;21.22;72.06;100635.09;5071021;28;1595;-60
2021/06/09 11:40:54;;;;;;;;;;;;;;;21.21;71.87;100636.94;5065589;28;1410;-60
2021/06/09 11:43:21;;;;;;;;;;;;;;;21.21;71.96;100639.63;5072806;28;1583;-60
2021/06/09 11:45:51;;;;;;;;;;;;;;;21.17;71.37;100630.19;5067674;28;1902;-60
2021/06/09 11:48:21;;;;;;;;;;;;;;;21.17;71.76;100627.50;5069896;28;1730;-63
2021/06/09 11:50:49;;;;;;;;;;;;;;;21.20;71.22;100620.97;5070106;28;1441;-60
2021/06/09 11:53:33;;;;;;;;;;;;;;;21.20;71.97;100631.72;5065597;28;1718;-63
2021/06/09 11:56:12;;;;;;;;;;;;;;;21.23;71.60;100626.88;5063819;28;1597;-63
2021/06/09 11:58:38;;;;;;;;;;;;;;;21.23;71.54;100618.81;5069172;28;1482;-63
2021/06/09 12:01:05;;;;;;;;;;;;;;;21.23;71.61;100629.56;5063773;28;1532;-63
2021/06/09 12:03:32;;;;;;;;;;;;;;;21.24;71.82;100625.88;5087251;28;1447;-61
2021/06/09 12:06:10;;;;;;;;;;;;;;;21.23;71.97;100621.50;5070281;28;1924;-63
2021/06/09 12:08:36;;;;;;;;;;;;;;;21.22;72.29;100622.50;5060085;28;1386;-63
2021/06/09 12:11:02;;;;;;;;;;;;;;;21.22;71.97;100621.66;5066506;28;1576;-61
2021/06/09 12:13:28;;;;;;;;;;;;;;;21.20;71.98;100615.59;5061840;28;1389;-60
2021/06/09 12:16:01;;;;;;;;;;;;;;;21.20;71.83;100605.66;5058111;28;1675;-63
2021/06/09 12:18:28;;;;;;;;;;;;;;;21.20;71.28;100596.75;5065179;28;1368;-61
2021/06/09 12:21:02;;;;;;;;;;;;;;;21.22;72.21;100616.28;5068884;28;1337;-60
2021/06/09 12:23:28;;;;;;;;;;;;;;;21.17;71.63;100605.13;5061065;28;1381;-61
2021/06/09 12:25:54;;;;;;;;;;;;;;;21.18;72.07;100579.94;5062847;28;1902;-63
2021/06/09 12:28:20;;;;;;;;;;;;;;;21.20;71.89;100605.66;5064740;28;1753;-61
2021/06/09 12:30:52;;;;;;;;;;;;;;;21.18;71.35;100601.44;5057646;28;1417;-63
2021/06/09 12:33:18;;;;;;;;;;;;;;;21.16;71.71;100582.78;5060095;28;1329;-61
2021/06/09 12:35:44;;;;;;;;;;;;;;;21.18;71.91;100594.22;5064329;28;1384;-64
2021/06/09 12:38:12;;;;;;;;;;;;;;;21.16;71.41;100581.94;5066931;28;1458;-61
2021/06/09 12:40:39;;;;;;;;;;;;;;;21.18;71.56;100586.16;5062361;28;1399;-63
2021/06/09 12:43:06;;;;;;;;;;;;;;;21.20;70.99;100586.00;5061742;28;1669;-64
2021/06/09 12:45:33;;;;;;;;;;;;;;;21.22;71.24;100586.69;5062345;28;1906;-61
2021/06/09 12:48:04;;;;;;;;;;;;;;;21.19;71.58;100566.34;5065620;28;1374;-64
2021/06/09 12:50:33;;;;;;;;;;;;;;;21.17;72.10;100572.84;5065899;28;1262;-61